Harkema, Netherlands
Current Conditions -  °F | °C
As of 1:25 AM on Thursday 27 Nov 2014 (Local Time) from EHLW Reporting Station
Unknown Precip Unknown Precip  
Wind Chill: 31°   Ceiling: 1300
Heat Index: 39°   Visibility: 2.7mi
Dew Point: 37°   Wind: 14mph
Humidity: 93%   Direction: 120°ESE
Pressure: 29.85"   Gusts: NA
Location:  53.18°N, 6.13°E
Report Text: EHLW 270025Z AUTO 12012KT 4400 -UP FEW007 OVC013 04/03 Q1011 GRN
Loading
Personal Weather Stations






























Interactive Weather Map New forecast layout! Learn more

10-Day Weather Forecast

Advertisements
Track Severe Weather on mobile